createdAt,value
2018-10-18T00:00:52.146Z,99.90
2018-10-18T00:03:23.989Z,99.90
2018-10-18T00:05:53.885Z,99.90
2018-10-18T00:08:24.698Z,99.90
2018-10-18T00:10:56.550Z,99.90
2018-10-18T00:13:29.922Z,99.90
2018-10-18T00:15:59.722Z,99.90
2018-10-18T00:18:30.583Z,99.90
2018-10-18T00:21:02.462Z,99.90
2018-10-18T00:23:34.290Z,99.90
2018-10-18T00:26:04.122Z,99.90
2018-10-18T00:28:33.901Z,99.90
2018-10-18T00:31:04.830Z,99.90
2018-10-18T00:33:36.610Z,99.90
2018-10-18T00:36:07.503Z,99.90
2018-10-18T00:38:37.262Z,99.90
2018-10-18T00:41:08.096Z,99.90
2018-10-18T00:43:41.578Z,99.90
2018-10-18T00:46:11.406Z,99.90
2018-10-18T00:48:41.210Z,99.90
2018-10-18T00:51:12.058Z,99.90
2018-10-18T00:53:42.906Z,99.90
2018-10-18T00:56:13.749Z,99.90
2018-10-18T00:58:46.595Z,99.90
2018-10-18T01:01:17.498Z,99.90
2018-10-18T01:03:48.274Z,99.90
2018-10-18T01:06:28.682Z,99.90
2018-10-18T01:09:04.691Z,99.90
2018-10-18T01:11:36.566Z,99.90
2018-10-18T01:14:08.948Z,99.90
2018-10-18T01:16:39.750Z,99.90
2018-10-18T01:19:23.530Z,99.90
2018-10-18T01:21:53.341Z,99.90
2018-10-18T01:24:32.916Z,99.90
2018-10-18T01:27:07.338Z,99.90
2018-10-18T01:29:43.789Z,99.90
2018-10-18T01:32:13.774Z,99.90
2018-10-18T01:34:43.557Z,99.90
2018-10-18T01:37:24.362Z,99.90
2018-10-18T01:40:03.690Z,99.90
2018-10-18T01:42:36.446Z,99.90
2018-10-18T01:45:08.297Z,99.90
2018-10-18T01:47:46.026Z,99.90
2018-10-18T01:50:21.446Z,99.90
2018-10-18T01:52:51.238Z,99.90
2018-10-18T01:55:25.598Z,99.90
2018-10-18T01:57:55.374Z,99.90
2018-10-18T02:00:25.562Z,99.90
2018-10-18T02:02:56.331Z,99.90
2018-10-18T02:05:44.427Z,99.90
2018-10-18T02:08:14.969Z,99.90
2018-10-18T02:10:45.778Z,99.90
2018-10-18T02:13:33.727Z,99.90
2018-10-18T02:16:06.401Z,99.90
2018-10-18T02:18:40.466Z,99.90
2018-10-18T02:21:13.520Z,99.90
2018-10-18T02:23:43.396Z,99.90
2018-10-18T02:26:36.627Z,99.90
2018-10-18T02:29:06.426Z,99.90
2018-10-18T02:31:38.208Z,99.90
2018-10-18T02:34:13.757Z,99.90
2018-10-18T02:36:43.579Z,99.90
2018-10-18T02:39:17.802Z,99.90
2018-10-18T02:41:47.722Z,99.90
2018-10-18T02:44:19.538Z,99.90
2018-10-18T02:46:49.370Z,99.90
2018-10-18T02:49:19.187Z,99.90
2018-10-18T02:51:50.050Z,99.90
2018-10-18T02:54:23.366Z,99.90
2018-10-18T02:56:57.577Z,99.90
2018-10-18T02:59:34.642Z,99.90
2018-10-18T03:02:04.666Z,99.90
2018-10-18T03:04:34.534Z,99.90
2018-10-18T03:07:04.730Z,99.90
2018-10-18T03:09:36.106Z,99.90
2018-10-18T03:12:07.079Z,99.90
2018-10-18T03:14:36.843Z,99.90
2018-10-18T03:17:07.735Z,99.90
2018-10-18T03:19:44.188Z,99.90
2018-10-18T03:22:14.199Z,99.90
2018-10-18T03:24:45.014Z,99.90
2018-10-18T03:27:21.771Z,99.90
2018-10-18T03:29:58.076Z,99.90
2018-10-18T03:32:27.883Z,99.90
2018-10-18T03:34:59.698Z,99.90
2018-10-18T03:37:30.574Z,99.90
2018-10-18T03:40:01.445Z,99.90
2018-10-18T03:42:33.311Z,99.90
2018-10-18T03:45:03.154Z,99.90
2018-10-18T03:47:32.970Z,99.90
2018-10-18T03:50:04.838Z,99.90
2018-10-18T03:52:34.630Z,99.90
2018-10-18T03:55:08.251Z,99.90
2018-10-18T03:57:41.115Z,99.90
2018-10-18T04:00:17.509Z,99.90
2018-10-18T04:03:01.686Z,99.90
2018-10-18T04:05:34.638Z,99.90
2018-10-18T04:08:05.910Z,99.90
2018-10-18T04:10:35.798Z,99.90
2018-10-18T04:13:09.276Z,99.90
2018-10-18T04:15:40.158Z,99.90
2018-10-18T04:18:10.030Z,99.90
2018-10-18T04:20:43.514Z,99.90
2018-10-18T04:23:19.398Z,99.90
2018-10-18T04:25:49.222Z,99.90
2018-10-18T04:28:25.582Z,99.90
2018-10-18T04:30:56.490Z,99.90
2018-10-18T04:33:28.353Z,99.90
2018-10-18T04:36:04.193Z,99.90
2018-10-18T04:38:34.938Z,99.90
2018-10-18T04:41:05.858Z,99.90
2018-10-18T04:43:40.102Z,99.90
2018-10-18T04:46:09.893Z,99.90
2018-10-18T04:48:40.772Z,99.90
2018-10-18T04:51:11.633Z,99.90
2018-10-18T04:53:42.502Z,99.90
2018-10-18T04:56:17.298Z,99.90
2018-10-18T04:58:47.425Z,99.90
2018-10-18T05:01:19.396Z,99.90
2018-10-18T05:03:50.162Z,99.90
2018-10-18T05:06:22.037Z,99.90
2018-10-18T05:08:56.129Z,99.90
2018-10-18T05:11:26.053Z,99.90
2018-10-18T05:13:58.913Z,99.90
2018-10-18T05:16:28.765Z,99.90
2018-10-18T05:19:02.393Z,99.90
2018-10-18T05:21:34.225Z,99.90
2018-10-18T05:24:05.494Z,99.90
2018-10-18T05:26:35.361Z,99.90
2018-10-18T05:29:12.733Z,99.90
2018-10-18T05:31:42.678Z,99.90
2018-10-18T05:34:14.437Z,99.90
2018-10-18T05:36:44.229Z,99.90
2018-10-18T05:39:14.015Z,99.90
2018-10-18T05:41:44.929Z,99.90
2018-10-18T05:44:15.733Z,99.90
2018-10-18T05:46:46.649Z,99.90
2018-10-18T05:49:17.495Z,99.90
2018-10-18T05:51:47.185Z,99.90
2018-10-18T05:54:19.096Z,99.90
2018-10-18T05:56:49.941Z,99.90
2018-10-18T05:59:19.898Z,99.90
2018-10-18T06:01:49.717Z,99.90
2018-10-18T06:04:19.594Z,99.90
2018-10-18T06:06:49.489Z,99.90
2018-10-18T06:09:31.883Z,99.90
2018-10-18T06:12:05.301Z,99.90
2018-10-18T06:14:35.088Z,99.90
2018-10-18T06:17:07.015Z,99.90
2018-10-18T06:19:36.893Z,99.90
2018-10-18T06:22:07.833Z,99.90
2018-10-18T06:24:38.673Z,99.90
2018-10-18T06:27:08.594Z,99.90
2018-10-18T06:29:40.461Z,99.90
2018-10-18T06:32:12.290Z,99.90
2018-10-18T06:34:42.221Z,99.90
2018-10-18T06:37:12.237Z,99.90
2018-10-18T06:39:41.982Z,99.90
2018-10-18T06:42:11.970Z,99.90
2018-10-18T06:44:42.870Z,99.90
2018-10-18T06:47:12.953Z,99.90
2018-10-18T06:49:43.610Z,99.90
2018-10-18T06:52:13.545Z,99.90
2018-10-18T06:54:43.366Z,99.90
2018-10-18T06:57:15.217Z,99.90
2018-10-18T06:59:45.141Z,99.90
2018-10-18T07:02:15.081Z,99.90
2018-10-18T07:04:44.983Z,99.90
2018-10-18T07:07:14.913Z,99.90
2018-10-18T07:09:48.489Z,99.90
2018-10-18T07:12:18.590Z,99.90
2018-10-18T07:14:48.523Z,99.90
2018-10-18T07:17:18.429Z,99.90
2018-10-18T07:19:59.310Z,99.90
2018-10-18T07:22:29.181Z,99.90
2018-10-18T07:24:59.028Z,99.90
2018-10-18T07:27:29.229Z,99.90
2018-10-18T07:29:59.986Z,99.90
2018-10-18T07:32:30.261Z,99.90
2018-10-18T07:35:01.152Z,99.90
2018-10-18T07:37:34.329Z,99.90
2018-10-18T07:40:04.195Z,99.90
2018-10-18T07:42:34.038Z,99.90
2018-10-18T07:45:03.972Z,99.90
2018-10-18T07:47:34.909Z,99.90
2018-10-18T07:50:06.953Z,99.90
2018-10-18T07:52:40.941Z,99.90
2018-10-18T07:55:11.959Z,99.90
2018-10-18T07:57:48.126Z,99.90
2018-10-18T08:00:21.779Z,99.90
2018-10-18T08:02:54.577Z,99.90
2018-10-18T08:05:27.625Z,99.90
2018-10-18T08:08:04.042Z,99.90
2018-10-18T08:10:48.150Z,99.90
2018-10-18T08:13:18.108Z,99.90
2018-10-18T08:15:48.801Z,99.90
2018-10-18T08:18:20.662Z,99.80
2018-10-18T08:20:50.581Z,99.10
2018-10-18T08:23:20.409Z,95.30
2018-10-18T08:25:50.242Z,94.40
2018-10-18T08:28:23.601Z,93.20
2018-10-18T08:30:55.124Z,91.40
2018-10-18T08:33:29.778Z,90.90
2018-10-18T08:35:59.701Z,90.10
2018-10-18T08:38:30.510Z,88.60
2018-10-18T08:41:04.830Z,87.70
2018-10-18T08:43:34.776Z,86.00
2018-10-18T08:46:05.065Z,84.90
2018-10-18T08:48:41.818Z,83.60
2018-10-18T08:51:11.619Z,82.10
2018-10-18T08:53:41.477Z,74.40
2018-10-18T08:56:11.302Z,64.40
2018-10-18T08:58:41.185Z,58.30
2018-10-18T09:01:14.755Z,54.00
2018-10-18T09:03:44.668Z,52.70
2018-10-18T09:06:15.529Z,51.40
2018-10-18T09:08:48.365Z,49.30
2018-10-18T09:11:18.169Z,47.20
2018-10-18T09:13:48.065Z,45.90
2018-10-18T09:16:18.949Z,43.80
2018-10-18T09:18:49.841Z,42.90
2018-10-18T09:21:24.954Z,42.10
2018-10-18T09:24:10.961Z,41.70
2018-10-18T09:26:46.329Z,41.70
2018-10-18T09:29:16.136Z,43.30
2018-10-18T09:31:51.993Z,42.30
2018-10-18T09:34:21.852Z,42.00
2018-10-18T09:36:52.696Z,42.10
2018-10-18T09:39:32.149Z,42.10
2018-10-18T09:42:06.901Z,41.50
2018-10-18T09:44:38.443Z,40.90
2018-10-18T09:47:09.201Z,40.50
2018-10-18T09:49:39.069Z,38.60
2018-10-18T09:52:08.969Z,39.10
2018-10-18T09:54:39.821Z,38.50
2018-10-18T09:57:09.781Z,38.30
2018-10-18T09:59:40.677Z,37.60
2018-10-18T10:02:19.005Z,37.80
2018-10-18T10:04:49.489Z,37.30
2018-10-18T10:07:41.981Z,38.00
2018-10-18T10:10:15.352Z,37.30
2018-10-18T10:12:48.218Z,35.90
2018-10-18T10:15:18.017Z,36.40
2018-10-18T10:17:47.978Z,37.80
2018-10-18T10:20:17.797Z,40.00
2018-10-18T10:22:48.698Z,40.10
2018-10-18T10:25:20.634Z,39.60
2018-10-18T10:27:50.517Z,39.80
2018-10-18T10:30:23.968Z,39.40
2018-10-18T10:32:54.857Z,38.20
2018-10-18T10:35:24.834Z,36.70
2018-10-18T10:37:54.588Z,35.30
2018-10-18T10:40:28.277Z,35.50
2018-10-18T10:42:59.117Z,35.50
2018-10-18T10:45:29.512Z,35.30
2018-10-18T10:48:00.271Z,36.70
2018-10-18T10:50:30.149Z,38.30
2018-10-18T10:52:59.969Z,39.10
2018-10-18T10:55:29.773Z,40.80
2018-10-18T10:57:59.712Z,42.10
2018-10-18T11:01:34.769Z,40.20
2018-10-18T11:04:04.629Z,39.10
2018-10-18T11:06:37.290Z,39.80
2018-10-18T11:09:10.801Z,42.60
2018-10-18T11:11:41.546Z,44.30
2018-10-18T11:14:12.434Z,45.70
2018-10-18T11:16:42.233Z,47.20
2018-10-18T11:19:12.257Z,48.20
2018-10-18T11:21:42.202Z,47.40
2018-10-18T11:24:22.502Z,46.90
2018-10-18T11:26:52.361Z,44.70
2018-10-18T11:29:24.170Z,44.90
2018-10-18T11:31:54.169Z,46.60
2018-10-18T11:34:25.090Z,43.20
2018-10-18T11:36:55.930Z,42.80
2018-10-18T11:39:33.077Z,43.20
2018-10-18T11:42:05.112Z,43.20
2018-10-18T11:44:38.869Z,45.40
2018-10-18T11:47:10.129Z,46.70
2018-10-18T11:49:42.169Z,44.90
2018-10-18T11:52:12.047Z,41.20
2018-10-18T11:54:41.934Z,38.50
2018-10-18T11:57:12.781Z,39.30
2018-10-18T11:59:42.689Z,39.90
2018-10-18T12:02:12.672Z,39.30
2018-10-18T12:04:42.557Z,37.30
2018-10-18T12:07:12.429Z,37.80
2018-10-18T12:09:42.363Z,37.60
2018-10-18T12:12:12.249Z,35.50
2018-10-18T12:14:43.093Z,36.40
2018-10-18T12:17:13.439Z,34.40
2018-10-18T12:19:44.232Z,33.40
2018-10-18T12:22:15.144Z,32.70
2018-10-18T12:24:49.581Z,32.50
2018-10-18T12:27:19.736Z,34.00
2018-10-18T12:29:51.604Z,35.90
2018-10-18T12:32:24.833Z,34.20
2018-10-18T12:34:55.741Z,32.20
2018-10-18T12:37:26.600Z,32.30
2018-10-18T12:39:57.601Z,30.60
2018-10-18T12:42:27.593Z,30.80
2018-10-18T12:45:03.625Z,32.50
2018-10-18T12:47:34.208Z,32.20
2018-10-18T12:50:05.369Z,31.80
2018-10-18T12:52:36.197Z,30.60
2018-10-18T12:55:11.749Z,31.30
2018-10-18T12:57:43.600Z,33.30
2018-10-18T13:00:13.509Z,34.50
2018-10-18T13:02:44.681Z,33.80
2018-10-18T13:05:14.584Z,33.50
2018-10-18T13:07:44.533Z,33.40
2018-10-18T13:10:14.425Z,36.00
2018-10-18T13:12:47.536Z,38.50
2018-10-18T13:15:27.925Z,40.90
2018-10-18T13:17:57.871Z,42.60
2018-10-18T13:20:29.925Z,44.10
2018-10-18T13:22:59.853Z,43.70
2018-10-18T13:25:29.695Z,40.20
2018-10-18T13:28:00.593Z,38.90
2018-10-18T13:30:32.473Z,39.00
2018-10-18T13:33:02.377Z,39.20
2018-10-18T13:35:33.302Z,41.80
2018-10-18T13:38:03.231Z,43.20
2018-10-18T13:40:33.145Z,44.40
2018-10-18T13:43:04.120Z,44.80
2018-10-18T13:45:33.953Z,42.90
2018-10-18T13:48:04.839Z,41.30
2018-10-18T13:50:36.712Z,38.80
2018-10-18T13:53:09.817Z,37.00
2018-10-18T13:55:46.301Z,39.70
2018-10-18T13:58:16.385Z,41.70
2018-10-18T14:00:47.192Z,43.30
2018-10-18T14:03:20.883Z,44.20
2018-10-18T14:05:51.737Z,44.90
2018-10-18T14:08:23.729Z,43.40
2018-10-18T14:10:55.435Z,41.80
2018-10-18T14:13:27.690Z,39.90
2018-10-18T14:15:58.553Z,38.80
2018-10-18T14:18:30.392Z,38.90
2018-10-18T14:21:00.329Z,41.20
2018-10-18T14:23:37.113Z,43.90
2018-10-18T14:26:10.623Z,43.90
2018-10-18T14:28:43.385Z,44.10
2018-10-18T14:31:15.245Z,43.30
2018-10-18T14:33:46.093Z,41.20
2018-10-18T14:36:32.793Z,41.10
2018-10-18T14:39:07.556Z,40.90
2018-10-18T14:41:37.809Z,39.90
2018-10-18T14:44:09.792Z,39.60
2018-10-18T14:46:39.621Z,39.90
2018-10-18T14:49:28.185Z,42.80
2018-10-18T14:52:00.077Z,44.90
2018-10-18T14:54:29.933Z,47.10
2018-10-18T14:56:59.884Z,48.50
2018-10-18T14:59:31.825Z,48.50
2018-10-18T15:02:01.724Z,47.80
2018-10-18T15:04:31.692Z,48.40
2018-10-18T15:07:02.461Z,48.70
2018-10-18T15:09:32.604Z,48.50
2018-10-18T15:12:09.922Z,48.90
2018-10-18T15:14:40.821Z,48.90
2018-10-18T15:17:11.902Z,48.60
2018-10-18T15:19:41.653Z,48.50
2018-10-18T15:22:11.709Z,48.90
2018-10-18T15:24:47.265Z,49.10
2018-10-18T15:27:18.289Z,49.20
2018-10-18T15:29:48.069Z,49.20
2018-10-18T15:32:17.983Z,49.40
2018-10-18T15:34:47.781Z,50.20
2018-10-18T15:37:19.677Z,50.70
2018-10-18T15:39:52.105Z,51.50
2018-10-18T15:42:32.285Z,52.30
2018-10-18T15:45:08.641Z,52.60
2018-10-18T15:47:38.658Z,52.90
2018-10-18T15:50:15.061Z,53.50
2018-10-18T15:52:46.889Z,53.90
2018-10-18T15:55:16.845Z,54.40
2018-10-18T15:57:47.746Z,55.30
2018-10-18T16:00:21.415Z,56.70
2018-10-18T16:02:51.269Z,57.30
2018-10-18T16:05:21.178Z,58.40
2018-10-18T16:07:51.101Z,59.50
2018-10-18T16:10:23.097Z,61.30
2018-10-18T16:12:59.054Z,62.70
2018-10-18T16:15:29.966Z,65.20
2018-10-18T16:18:01.790Z,67.60
2018-10-18T16:20:31.717Z,71.00
2018-10-18T16:23:02.610Z,73.70
2018-10-18T16:25:42.532Z,77.80
2018-10-18T16:28:24.192Z,82.40
2018-10-18T16:31:07.481Z,86.50
2018-10-18T16:33:39.127Z,91.00
2018-10-18T16:36:10.936Z,92.00
2018-10-18T16:38:42.789Z,93.40
2018-10-18T16:41:13.167Z,95.10
2018-10-18T16:43:43.857Z,96.10
2018-10-18T16:46:14.829Z,97.30
2018-10-18T16:48:44.693Z,98.40
2018-10-18T16:51:14.626Z,99.60
2018-10-18T16:53:46.592Z,99.90
2018-10-18T16:56:17.484Z,99.90
2018-10-18T16:58:48.245Z,99.90
2018-10-18T17:01:18.172Z,99.90
2018-10-18T17:03:51.284Z,99.90
2018-10-18T17:06:21.199Z,99.90
2018-10-18T17:08:51.101Z,99.90
2018-10-18T17:11:23.005Z,99.90
2018-10-18T17:13:54.832Z,99.90
2018-10-18T17:16:24.861Z,99.90
2018-10-18T17:19:01.197Z,99.90
2018-10-18T17:21:45.678Z,99.90
2018-10-18T17:24:23.065Z,99.90
2018-10-18T17:27:05.271Z,99.90
2018-10-18T17:29:35.148Z,99.90
2018-10-18T17:32:08.481Z,99.90
2018-10-18T17:34:39.688Z,99.90
2018-10-18T17:37:13.264Z,99.90
2018-10-18T17:39:43.320Z,99.90
2018-10-18T17:42:13.355Z,99.90
2018-10-18T17:44:43.161Z,99.90
2018-10-18T17:47:14.150Z,99.90
2018-10-18T17:49:44.033Z,99.90
2018-10-18T17:52:17.437Z,99.90
2018-10-18T17:54:47.313Z,99.90
2018-10-18T17:57:19.385Z,99.90
2018-10-18T17:59:49.636Z,99.90
2018-10-18T18:02:21.597Z,99.90
2018-10-18T18:04:55.657Z,99.90
2018-10-18T18:07:27.597Z,99.90
2018-10-18T18:09:59.450Z,99.90
2018-10-18T18:12:29.313Z,99.90
2018-10-18T18:15:03.159Z,99.90
2018-10-18T18:17:34.049Z,99.90
2018-10-18T18:20:09.725Z,99.90
2018-10-18T18:22:40.902Z,99.90
2018-10-18T18:25:13.249Z,99.90
2018-10-18T18:27:43.220Z,99.90
2018-10-18T18:30:14.613Z,99.90
2018-10-18T18:32:45.481Z,99.90
2018-10-18T18:35:15.440Z,99.90
2018-10-18T18:37:46.378Z,99.90
2018-10-18T18:40:16.406Z,99.90
2018-10-18T18:42:47.333Z,99.90
2018-10-18T18:45:21.322Z,99.90
2018-10-18T18:47:52.225Z,99.90
2018-10-18T18:50:22.240Z,99.90
2018-10-18T18:52:53.323Z,99.90
2018-10-18T18:55:23.149Z,99.90
2018-10-18T18:57:54.153Z,99.90
2018-10-18T19:00:26.086Z,99.90
2018-10-18T19:02:56.995Z,99.90
2018-10-18T19:05:26.853Z,99.90
2018-10-18T19:07:56.770Z,99.90
2018-10-18T19:10:26.737Z,99.90
2018-10-18T19:12:56.626Z,99.90
2018-10-18T19:15:26.541Z,99.90
2018-10-18T19:17:57.164Z,99.90
2018-10-18T19:20:27.100Z,99.90
2018-10-18T19:22:57.003Z,99.90
2018-10-18T19:25:26.925Z,99.90
2018-10-18T19:27:56.840Z,99.90
2018-10-18T19:30:26.839Z,99.90
2018-10-18T19:32:56.748Z,99.90
2018-10-18T19:35:26.768Z,99.90
2018-10-18T19:37:58.785Z,99.90
2018-10-18T19:40:28.788Z,99.90
2018-10-18T19:42:59.692Z,99.90
2018-10-18T19:45:35.013Z,99.90
2018-10-18T19:48:04.968Z,99.90
2018-10-18T19:50:35.920Z,99.90
2018-10-18T19:53:06.108Z,99.90
2018-10-18T19:55:38.612Z,99.90
2018-10-18T19:58:09.661Z,99.90
2018-10-18T20:00:49.674Z,99.90
2018-10-18T20:03:23.053Z,99.90
2018-10-18T20:05:56.052Z,99.90
2018-10-18T20:08:27.884Z,99.90
2018-10-18T20:10:59.824Z,99.90
2018-10-18T20:13:31.732Z,99.90
2018-10-18T20:16:01.689Z,99.90
2018-10-18T20:18:31.616Z,99.90
2018-10-18T20:21:03.730Z,99.90
2018-10-18T20:23:39.257Z,99.90
2018-10-18T20:26:11.499Z,99.90
2018-10-18T20:28:41.052Z,99.90
2018-10-18T20:31:11.039Z,99.90
2018-10-18T20:33:43.948Z,99.90
2018-10-18T20:36:14.880Z,99.90
2018-10-18T20:38:44.793Z,99.90
2018-10-18T20:41:14.851Z,99.90
2018-10-18T20:43:45.693Z,99.90
2018-10-18T20:46:15.537Z,99.90
2018-10-18T20:48:45.553Z,99.90
2018-10-18T20:51:16.879Z,99.90
2018-10-18T20:53:46.729Z,99.90
2018-10-18T20:56:20.184Z,99.90
2018-10-18T20:58:51.129Z,99.90
2018-10-18T21:01:21.209Z,99.90
2018-10-18T21:03:55.733Z,99.90
2018-10-18T21:06:25.894Z,99.90
2018-10-18T21:09:03.176Z,99.90
2018-10-18T21:11:34.054Z,99.90
2018-10-18T21:14:05.125Z,99.90
2018-10-18T21:16:35.058Z,99.90
2018-10-18T21:19:04.981Z,99.90
2018-10-18T21:21:36.917Z,99.90
2018-10-18T21:24:06.761Z,99.90
2018-10-18T21:26:36.732Z,99.90
2018-10-18T21:29:07.666Z,99.90
2018-10-18T21:31:38.660Z,99.90
2018-10-18T21:34:08.640Z,99.90
2018-10-18T21:36:39.437Z,99.90
2018-10-18T21:39:09.476Z,99.90
2018-10-18T21:41:40.288Z,99.90
2018-10-18T21:44:10.241Z,99.90
2018-10-18T21:46:40.144Z,99.90
2018-10-18T21:49:11.053Z,99.90
2018-10-18T21:51:42.941Z,99.90
2018-10-18T21:54:13.777Z,99.90
2018-10-18T21:56:43.688Z,99.90
2018-10-18T21:59:13.634Z,99.90
2018-10-18T22:01:44.764Z,99.90
2018-10-18T22:04:16.204Z,99.90
2018-10-18T22:06:47.008Z,99.90
2018-10-18T22:09:18.905Z,99.90
2018-10-18T22:11:49.817Z,99.90
2018-10-18T22:14:19.968Z,99.90
2018-10-18T22:16:50.808Z,99.90
2018-10-18T22:19:20.709Z,99.90
2018-10-18T22:21:50.616Z,99.90
2018-10-18T22:24:20.720Z,99.90
2018-10-18T22:26:56.306Z,99.90
2018-10-18T22:29:29.533Z,99.90
2018-10-18T22:31:59.441Z,99.90
2018-10-18T22:34:29.909Z,99.90
2018-10-18T22:37:03.214Z,99.90
2018-10-18T22:39:33.161Z,99.90
2018-10-18T22:42:06.817Z,99.90
2018-10-18T22:44:37.781Z,99.90
2018-10-18T22:47:08.705Z,99.90
2018-10-18T22:49:38.656Z,99.90
2018-10-18T22:52:14.101Z,99.90
2018-10-18T22:54:45.092Z,99.90
2018-10-18T22:57:18.773Z,99.90
2018-10-18T22:59:50.640Z,99.90
2018-10-18T23:02:20.557Z,99.90
2018-10-18T23:04:54.925Z,99.90
2018-10-18T23:07:24.849Z,99.90
2018-10-18T23:09:54.829Z,99.90
2018-10-18T23:12:24.780Z,99.90
2018-10-18T23:14:55.753Z,99.90
2018-10-18T23:17:31.400Z,99.90
2018-10-18T23:20:06.084Z,99.90
2018-10-18T23:22:36.950Z,99.90
2018-10-18T23:25:07.940Z,99.90
2018-10-18T23:27:39.868Z,99.90
2018-10-18T23:30:13.460Z,99.90
2018-10-18T23:32:43.540Z,99.90
2018-10-18T23:35:14.450Z,99.90
2018-10-18T23:37:44.357Z,99.90
2018-10-18T23:40:17.696Z,99.90
2018-10-18T23:42:54.729Z,99.90
2018-10-18T23:45:25.664Z,99.90
2018-10-18T23:47:55.584Z,99.90
2018-10-18T23:50:27.577Z,99.90
2018-10-18T23:52:59.497Z,99.90
2018-10-18T23:55:37.973Z,99.90
2018-10-18T23:58:07.904Z,99.90
